Strona główna
METAR-TAF:

METAR-TAF

Lotnisko :

Athens, Ohio, Stany Zjednoczone

Szerokość geograficzna: 39-12-43N, Długość geograficzna: 082-13-45W, wysokość: 233 m

Aktualna obserwacja pogody

Raport powstał 13 minut temu, godzina 17:35 UTC
Wiatr 3 kt od północ
Temperatura 0°C
Wilgotność 55%
Ciśnienie 1033 hPa
Widzialność: 16.1 km
Zachmurzenie całkowite na wysokości 11000 ft

METAR: KUNI 201735Z AUTO 36003KT 10SM OVC110 00/M08 A3050 RMK AO2 T00021077

czas: 12:48 (17:48 UTC)


TAF: brakujący

Obserwacja i prognoza pogody dla ponad 4000 lotnisk (raport METAR i TAF).

Dostępne stacje oznaczono żółtymi i czerwonymi punktami na mapie.

Najedź kursorem aby zobaczyć nazwę stacji.

Kliknij aby zobaczyć obserwacje i prognozy pogody.

Aby zmienić mapę: kliknij na zielony przycisk z czarnym krzyżykiem, aby powiększyć; na zielony przycisk z myślnikiem, aby pomniejszyć; na zielone strzałki, aby przejść do map sąsiednich.


METAR-TAF: